Time;durP1;ratioP1;P1;durP2;ratioP2;P2;SDS_P1;SDS_P2;PMS_P1;PMS_P2;Temp;Humidity;BMP_temperature;BMP_pressure;BME280_temperature;BME280_humidity;BME280_pressure;Samples;Min_cycle;Max_cycle;Signal;HPM_P1;HPM_P2
2021/11/22 00:00:18;;;;;;;5.00;1.55;;;6.90;81.60;;;;;;5069903;28;20031;-79
2021/11/22 00:02:45;;;;;;;4.70;1.40;;;6.90;81.70;;;;;;5067588;28;20063;-80
2021/11/22 00:05:11;;;;;;;3.53;1.10;;;6.80;81.60;;;;;;5048258;28;20071;-78
2021/11/22 00:07:37;;;;;;;3.70;1.40;;;6.80;81.60;;;;;;5055777;28;20044;-69
2021/11/22 00:10:05;;;;;;;7.57;1.50;;;6.80;81.80;;;;;;5069057;28;20021;-69
2021/11/22 00:12:33;;;;;;;2.55;1.10;;;6.80;81.80;;;;;;5069667;28;20369;-77
2021/11/22 00:15:00;;;;;;;7.35;1.35;;;6.80;81.80;;;;;;5062480;28;20024;-77
2021/11/22 00:17:26;;;;;;;3.03;1.25;;;6.80;81.70;;;;;;5069738;28;20527;-68
2021/11/22 00:19:52;;;;;;;4.72;1.30;;;6.80;81.80;;;;;;5067888;28;20120;-78
2021/11/22 00:22:17;;;;;;;3.45;1.27;;;6.80;81.70;;;;;;5049755;28;20025;-78
2021/11/22 00:24:43;;;;;;;2.80;1.10;;;6.80;81.70;;;;;;5054595;28;20063;-78
2021/11/22 00:27:09;;;;;;;5.95;1.60;;;6.80;81.70;;;;;;5069583;28;20029;-78
2021/11/22 00:29:35;;;;;;;3.83;1.23;;;6.80;81.70;;;;;;5069634;28;20024;-78
2021/11/22 00:32:03;;;;;;;3.40;1.05;;;6.80;81.80;;;;;;5062775;28;20021;-78
2021/11/22 00:34:30;;;;;;;5.90;1.23;;;6.80;81.80;;;;;;5067705;28;20387;-79
2021/11/22 00:36:56;;;;;;;6.40;1.08;;;6.70;81.80;;;;;;5059238;28;20041;-80
2021/11/22 00:39:22;;;;;;;5.57;1.33;;;6.70;81.80;;;;;;5066409;28;20043;-81
2021/11/22 00:41:48;;;;;;;1.88;1.02;;;6.70;81.90;;;;;;5057101;28;20082;-80
2021/11/22 00:44:15;;;;;;;4.75;1.10;;;6.70;81.90;;;;;;5067606;28;20391;-80
2021/11/22 00:46:41;;;;;;;3.08;1.27;;;6.70;82.00;;;;;;5059904;28;20033;-80
2021/11/22 00:49:07;;;;;;;6.90;1.38;;;6.70;82.00;;;;;;5076164;28;20047;-80
2021/11/22 00:51:33;;;;;;;2.78;1.10;;;6.70;82.00;;;;;;5089743;28;20028;-80
2021/11/22 00:53:59;;;;;;;4.05;1.15;;;6.70;82.00;;;;;;5082932;28;20028;-80
2021/11/22 00:56:24;;;;;;;3.60;1.10;;;6.60;82.00;;;;;;5092555;28;20502;-80
2021/11/22 00:58:50;;;;;;;9.30;2.83;;;6.60;82.10;;;;;;5092214;28;20043;-68
2021/11/22 01:01:16;;;;;;;5.18;1.13;;;6.60;82.20;;;;;;5073336;28;20486;-68
2021/11/22 01:03:42;;;;;;;2.83;1.08;;;6.60;82.20;;;;;;5090777;28;20031;-69
2021/11/22 01:06:08;;;;;;;4.30;1.33;;;6.60;82.30;;;;;;5074295;28;20063;-68
2021/11/22 01:08:33;;;;;;;4.40;1.20;;;6.60;82.40;;;;;;5073760;28;20028;-69
2021/11/22 01:10:59;;;;;;;4.32;1.17;;;6.50;82.40;;;;;;5091692;28;20024;-68
2021/11/22 01:13:25;;;;;;;3.88;1.23;;;6.50;82.40;;;;;;5084817;28;20043;-80
2021/11/22 01:15:51;;;;;;;5.45;1.67;;;6.50;82.50;;;;;;5084048;28;20114;-80
2021/11/22 01:18:17;;;;;;;4.28;1.17;;;6.50;82.50;;;;;;5092667;28;20119;-69
2021/11/22 01:20:43;;;;;;;3.83;1.55;;;6.50;82.60;;;;;;5092059;28;20031;-69
2021/11/22 01:23:12;;;;;;;3.40;1.00;;;6.50;82.50;;;;;;5092693;28;20089;-80
2021/11/22 01:25:40;;;;;;;3.22;1.13;;;6.50;82.50;;;;;;5088876;28;20451;-80
2021/11/22 01:28:07;;;;;;;4.95;1.42;;;6.50;82.50;;;;;;5074272;28;20028;-69
2021/11/22 01:30:33;;;;;;;3.67;0.93;;;6.50;82.50;;;;;;5091511;28;20028;-69
2021/11/22 01:32:58;;;;;;;5.60;1.30;;;6.50;82.60;;;;;;5091742;28;20485;-69
2021/11/22 01:35:24;;;;;;;3.50;1.20;;;6.50;82.70;;;;;;5091022;28;20024;-69
2021/11/22 01:37:51;;;;;;;5.13;1.40;;;6.50;82.70;;;;;;5073917;28;20032;-69
2021/11/22 01:40:22;;;;;;;4.38;1.40;;;6.40;82.70;;;;;;5057115;28;20411;-69
2021/11/22 01:42:49;;;;;;;3.47;1.00;;;6.40;82.70;;;;;;5091349;28;20517;-68
2021/11/22 01:45:17;;;;;;;2.72;0.95;;;6.40;82.70;;;;;;5091070;28;20048;-69
2021/11/22 01:47:44;;;;;;;3.97;1.30;;;6.40;82.80;;;;;;5089030;28;20048;-69
2021/11/22 01:50:13;;;;;;;3.67;1.10;;;6.40;82.80;;;;;;5068211;28;20116;-68
2021/11/22 01:52:39;;;;;;;3.55;1.20;;;6.40;82.80;;;;;;5072766;28;20036;-68
2021/11/22 01:55:07;;;;;;;3.95;1.20;;;6.40;82.80;;;;;;5090086;28;20024;-69
2021/11/22 01:57:34;;;;;;;4.75;1.55;;;6.40;82.80;;;;;;5102456;28;20395;-68
2021/11/22 02:00:05;;;;;;;2.30;1.15;;;6.30;82.90;;;;;;5091763;28;20544;-68
2021/11/22 02:02:30;;;;;;;3.38;1.25;;;6.30;83.50;;;;;;5086651;28;20375;-68
2021/11/22 02:04:56;;;;;;;2.97;1.08;;;6.30;82.90;;;;;;5089532;28;20032;-69
2021/11/22 02:07:24;;;;;;;4.43;1.13;;;6.30;82.90;;;;;;5091529;28;20035;-79
2021/11/22 02:09:49;;;;;;;2.80;1.20;;;6.30;83.10;;;;;;5068062;28;20024;-79
2021/11/22 02:12:15;;;;;;;3.85;1.40;;;6.30;82.90;;;;;;5092014;28;20020;-79
2021/11/22 02:14:41;;;;;;;5.03;1.20;;;6.30;82.90;;;;;;5090159;28;20043;-79
2021/11/22 02:17:08;;;;;;;2.17;1.30;;;6.30;82.90;;;;;;5088817;28;20399;-79
2021/11/22 02:19:38;;;;;;;2.80;0.98;;;6.30;83.00;;;;;;5091406;28;20571;-79
2021/11/22 02:22:05;;;;;;;5.68;1.50;;;6.30;83.00;;;;;;5091655;28;20024;-79
2021/11/22 02:24:31;;;;;;;4.25;1.30;;;6.30;82.90;;;;;;5085418;28;20055;-79
2021/11/22 02:26:56;;;;;;;4.88;1.65;;;6.30;82.90;;;;;;5091529;28;20431;-79
2021/11/22 02:29:22;;;;;;;2.95;1.17;;;6.20;82.90;;;;;;5087502;28;20056;-79
2021/11/22 02:31:48;;;;;;;4.28;1.60;;;6.20;82.90;;;;;;5062969;28;20020;-79
2021/11/22 02:34:14;;;;;;;2.95;1.40;;;6.20;82.90;;;;;;5090383;28;20040;-79
2021/11/22 02:36:40;;;;;;;5.40;1.27;;;6.20;82.90;;;;;;5087159;28;20064;-79
2021/11/22 02:39:07;;;;;;;1.85;1.17;;;6.20;82.90;;;;;;5090250;28;20064;-68
2021/11/22 02:41:34;;;;;;;3.33;1.13;;;6.20;82.90;;;;;;5090582;28;20024;-69
2021/11/22 02:43:59;;;;;;;6.15;1.55;;;6.20;82.90;;;;;;5064580;28;20055;-79
2021/11/22 02:46:26;;;;;;;3.85;1.27;;;6.20;83.00;;;;;;5087291;28;20451;-78
2021/11/22 02:48:52;;;;;;;2.60;1.20;;;6.10;82.90;;;;;;5083411;28;20020;-78
2021/11/22 02:51:18;;;;;;;4.30;1.13;;;6.10;82.90;;;;;;5090591;28;20032;-77
2021/11/22 02:53:43;;;;;;;5.15;1.50;;;6.10;82.80;;;;;;5090188;28;20041;-69
2021/11/22 02:56:09;;;;;;;2.92;1.17;;;6.10;82.80;;;;;;5070726;28;20035;-69
2021/11/22 02:58:40;;;;;;;2.47;0.98;;;6.10;82.80;;;;;;5090115;28;20457;-69
2021/11/22 03:01:07;;;;;;;4.30;1.15;;;6.10;82.80;;;;;;5085997;28;20489;-68
2021/11/22 03:03:35;;;;;;;4.68;1.50;;;6.00;82.80;;;;;;5087497;28;20024;-68
2021/11/22 03:06:13;;;;;;;4.32;1.70;;;6.00;83.00;;;;;;5086379;28;20020;-68
2021/11/22 03:08:40;;;;;;;3.17;1.35;;;6.10;83.30;;;;;;5081753;28;20024;-68
2021/11/22 03:11:08;;;;;;;4.35;1.50;;;6.00;82.90;;;;;;5089482;28;20077;-78
2021/11/22 03:13:34;;;;;;;5.10;1.48;;;6.00;82.90;;;;;;5090167;28;20020;-79
2021/11/22 03:16:00;;;;;;;3.28;1.42;;;6.00;82.90;;;;;;5090432;28;20047;-69
2021/11/22 03:18:26;;;;;;;8.55;1.50;;;6.00;83.00;;;;;;5089569;28;20106;-68
2021/11/22 03:20:52;;;;;;;2.35;1.40;;;5.90;83.00;;;;;;5089720;28;20421;-69
2021/11/22 03:23:18;;;;;;;5.28;1.30;;;6.00;83.10;;;;;;5075944;28;20120;-68
2021/11/22 03:25:44;;;;;;;3.40;1.15;;;5.90;83.00;;;;;;5088878;28;20036;-69
2021/11/22 03:28:11;;;;;;;6.15;1.50;;;5.90;83.10;;;;;;5089897;28;20119;-69
2021/11/22 03:30:39;;;;;;;1.73;0.82;;;5.90;83.00;;;;;;5061629;28;20482;-68
2021/11/22 03:33:05;;;;;;;5.93;1.30;;;5.90;83.00;;;;;;5088998;28;20158;-69
2021/11/22 03:35:31;;;;;;;5.47;1.50;;;5.90;83.00;;;;;;5089533;28;20054;-78
2021/11/22 03:37:57;;;;;;;7.25;1.30;;;5.80;83.00;;;;;;5090177;28;20075;-78
2021/11/22 03:40:23;;;;;;;3.13;1.17;;;5.90;83.10;;;;;;5054884;28;20174;-77
2021/11/22 03:43:02;;;;;;;3.20;1.20;;;5.80;83.10;;;;;;5089691;28;20118;-77
2021/11/22 03:45:28;;;;;;;2.72;1.20;;;5.80;83.00;;;;;;5089520;28;20386;-78
2021/11/22 03:47:53;;;;;;;3.40;1.38;;;5.80;83.00;;;;;;5076043;28;20047;-79
2021/11/22 03:50:19;;;;;;;2.55;1.40;;;5.70;83.00;;;;;;5072169;28;20047;-79
2021/11/22 03:52:45;;;;;;;6.32;1.73;;;5.70;83.10;;;;;;5072191;28;20031;-79
2021/11/22 03:55:11;;;;;;;3.40;1.20;;;5.70;83.20;;;;;;5071466;28;20486;-78
2021/11/22 03:57:37;;;;;;;3.03;1.25;;;5.70;83.20;;;;;;5089608;28;20118;-79
2021/11/22 04:00:03;;;;;;;4.22;1.20;;;5.70;83.20;;;;;;5063732;28;20040;-79
2021/11/22 04:02:30;;;;;;;6.25;1.48;;;5.70;83.20;;;;;;5087788;28;20024;-80
2021/11/22 04:04:56;;;;;;;4.28;1.27;;;5.70;83.30;;;;;;5084704;28;20433;-80
2021/11/22 04:07:21;;;;;;;4.63;2.22;;;5.70;83.80;;;;;;5071824;28;20024;-80
2021/11/22 04:09:47;;;;;;;4.88;1.52;;;5.60;83.20;;;;;;5089791;28;20478;-80
2021/11/22 04:12:13;;;;;;;3.00;1.15;;;5.60;83.30;;;;;;5080039;28;20039;-80
2021/11/22 04:14:39;;;;;;;4.70;1.25;;;5.60;83.30;;;;;;5085272;28;20028;-80
2021/11/22 04:17:04;;;;;;;5.15;2.00;;;5.60;83.30;;;;;;5071907;28;20020;-80
2021/11/22 04:19:30;;;;;;;5.97;1.27;;;5.60;83.30;;;;;;5089484;28;20081;-68
2021/11/22 04:21:56;;;;;;;2.58;1.40;;;5.60;83.30;;;;;;5070203;28;20036;-68
2021/11/22 04:24:22;;;;;;;3.60;1.30;;;5.60;83.30;;;;;;5087964;28;20043;-68
2021/11/22 04:26:47;;;;;;;6.00;1.73;;;5.60;83.40;;;;;;5086237;28;20089;-69
2021/11/22 04:29:13;;;;;;;4.68;1.20;;;5.60;83.40;;;;;;5088422;28;20507;-80
2021/11/22 04:31:39;;;;;;;2.67;1.23;;;5.60;83.40;;;;;;5075369;28;20220;-80
2021/11/22 04:34:05;;;;;;;3.53;1.45;;;5.60;83.40;;;;;;5056443;28;20031;-80
2021/11/22 04:36:30;;;;;;;4.78;1.52;;;5.60;83.40;;;;;;5076168;28;20031;-79
2021/11/22 04:38:56;;;;;;;8.98;3.58;;;5.60;83.30;;;;;;5082069;28;20039;-79
2021/11/22 04:41:24;;;;;;;2.53;1.13;;;5.60;83.40;;;;;;5096695;28;20028;-68
2021/11/22 04:43:50;;;;;;;3.45;1.38;;;5.50;83.40;;;;;;5075910;28;20572;-79
2021/11/22 04:46:16;;;;;;;5.20;1.30;;;5.50;83.40;;;;;;5100959;28;20024;-79
2021/11/22 04:48:42;;;;;;;5.63;1.45;;;5.50;83.30;;;;;;5099446;28;20494;-79
2021/11/22 04:51:08;;;;;;;4.57;1.10;;;5.50;83.50;;;;;;5082790;28;20454;-79
2021/11/22 04:53:33;;;;;;;7.78;1.30;;;5.50;83.50;;;;;;5085652;28;20403;-79
2021/11/22 04:55:59;;;;;;;3.92;1.20;;;5.50;83.50;;;;;;5093909;28;20475;-69
2021/11/22 04:58:26;;;;;;;5.25;1.40;;;5.40;83.50;;;;;;5082995;28;20398;-79
2021/11/22 05:00:51;;;;;;;2.30;1.17;;;5.40;83.40;;;;;;5094154;28;20111;-79
2021/11/22 05:03:17;;;;;;;4.30;1.98;;;5.50;83.50;;;;;;5098768;28;20185;-79
2021/11/22 05:05:43;;;;;;;4.82;1.30;;;5.50;83.40;;;;;;5101934;28;20044;-80
2021/11/22 05:08:10;;;;;;;6.55;1.30;;;5.40;83.40;;;;;;5098574;28;20028;-79
2021/11/22 05:10:40;;;;;;;6.15;1.77;;;5.40;83.40;;;;;;5104316;28;20020;-79
2021/11/22 05:13:06;;;;;;;3.63;1.10;;;5.40;83.40;;;;;;5098958;28;20024;-80
2021/11/22 05:15:34;;;;;;;1.60;1.10;;;5.40;83.40;;;;;;5077618;28;20478;-80
2021/11/22 05:17:59;;;;;;;4.60;1.35;;;5.40;83.40;;;;;;5101669;28;20382;-68
2021/11/22 05:20:25;;;;;;;2.38;1.35;;;5.40;83.40;;;;;;5091288;28;20044;-79
2021/11/22 05:22:51;;;;;;;2.58;1.30;;;5.40;83.40;;;;;;5098508;28;20032;-80
2021/11/22 05:25:17;;;;;;;1.75;1.30;;;5.40;83.50;;;;;;5090135;28;20038;-69
2021/11/22 05:27:43;;;;;;;4.40;1.33;;;5.40;83.50;;;;;;5091242;28;20035;-68
2021/11/22 05:30:09;;;;;;;3.10;1.33;;;5.40;83.40;;;;;;5075781;28;20036;-80
2021/11/22 05:32:35;;;;;;;3.70;1.35;;;5.30;83.40;;;;;;5101929;28;20038;-80
2021/11/22 05:35:00;;;;;;;4.95;1.38;;;5.30;83.30;;;;;;5100546;28;20028;-68
2021/11/22 05:37:31;;;;;;;4.05;1.50;;;5.30;83.40;;;;;;5099479;28;20119;-68
2021/11/22 05:39:57;;;;;;;2.08;1.30;;;5.30;83.40;;;;;;5077267;28;20360;-68
2021/11/22 05:42:23;;;;;;;4.00;1.20;;;5.30;83.30;;;;;;5090754;28;20036;-68
2021/11/22 05:44:49;;;;;;;1.88;1.08;;;5.20;83.20;;;;;;5072556;28;20040;-68
2021/11/22 05:47:15;;;;;;;3.47;1.55;;;5.20;83.20;;;;;;5095980;28;20051;-79
2021/11/22 05:49:41;;;;;;;6.35;1.75;;;5.20;83.20;;;;;;5080834;28;20511;-79
2021/11/22 05:52:10;;;;;;;4.00;1.67;;;5.30;83.20;;;;;;5078546;28;20051;-79
2021/11/22 05:54:45;;;;;;;2.05;1.30;;;5.20;83.10;;;;;;5091691;28;20382;-68
2021/11/22 05:57:11;;;;;;;3.22;1.27;;;5.20;83.20;;;;;;5089671;28;20020;-69
2021/11/22 05:59:36;;;;;;;5.03;1.73;;;5.20;83.10;;;;;;5092831;28;20042;-69
2021/11/22 06:02:02;;;;;;;2.13;1.20;;;5.20;83.10;;;;;;5094757;28;20024;-68
2021/11/22 06:04:28;;;;;;;2.33;1.40;;;5.20;83.00;;;;;;5092256;28;20036;-69
2021/11/22 06:06:55;;;;;;;5.15;1.30;;;5.10;83.00;;;;;;5090503;28;20445;-68
2021/11/22 06:09:21;;;;;;;4.32;1.33;;;5.10;83.00;;;;;;5090267;28;20032;-68
2021/11/22 06:11:47;;;;;;;4.30;1.42;;;5.10;83.00;;;;;;5089187;28;20020;-68
2021/11/22 06:14:12;;;;;;;3.03;1.48;;;5.10;83.10;;;;;;5089778;28;20032;-69
2021/11/22 06:16:38;;;;;;;6.55;1.65;;;5.10;83.00;;;;;;5098962;28;20047;-78
2021/11/22 06:19:04;;;;;;;2.85;1.38;;;5.10;83.00;;;;;;5096597;28;20036;-68
2021/11/22 06:21:30;;;;;;;3.78;1.25;;;5.10;83.00;;;;;;5071196;28;20059;-68
2021/11/22 06:23:56;;;;;;;3.88;2.13;;;5.00;82.90;;;;;;5088196;28;20038;-69
2021/11/22 06:26:21;;;;;;;2.72;1.40;;;5.10;82.90;;;;;;5089806;28;20036;-69
2021/11/22 06:28:47;;;;;;;3.58;1.40;;;5.00;82.70;;;;;;5090983;28;20100;-69
2021/11/22 06:31:13;;;;;;;3.67;1.30;;;5.00;82.70;;;;;;5090965;28;20028;-68
2021/11/22 06:33:38;;;;;;;2.65;1.40;;;5.00;82.60;;;;;;5090169;28;20036;-68
2021/11/22 06:36:04;;;;;;;2.80;1.40;;;5.00;82.60;;;;;;5064615;28;20024;-79
2021/11/22 06:38:33;;;;;;;5.38;1.45;;;5.00;82.50;;;;;;5089205;28;20406;-68
2021/11/22 06:40:59;;;;;;;5.28;1.35;;;5.00;82.50;;;;;;5090155;28;20040;-79
2021/11/22 06:43:26;;;;;;;4.30;1.80;;;5.00;82.50;;;;;;5072407;28;20520;-80
2021/11/22 06:45:52;;;;;;;3.25;1.50;;;5.00;82.50;;;;;;5090871;28;20107;-68
2021/11/22 06:48:17;;;;;;;4.22;1.85;;;4.90;82.40;;;;;;5089345;28;20059;-68
2021/11/22 06:50:43;;;;;;;4.65;1.60;;;4.90;82.40;;;;;;5055249;28;20486;-79
2021/11/22 06:53:09;;;;;;;3.83;1.35;;;4.90;82.40;;;;;;5089320;28;20545;-69
2021/11/22 06:55:35;;;;;;;3.80;1.60;;;4.90;82.50;;;;;;5089189;28;20109;-69
2021/11/22 06:58:00;;;;;;;5.15;2.00;;;4.90;82.50;;;;;;5090415;28;20036;-69
2021/11/22 07:00:26;;;;;;;6.18;1.60;;;4.90;82.60;;;;;;5089627;28;20358;-69
2021/11/22 07:02:52;;;;;;;4.82;1.58;;;4.80;82.60;;;;;;5089745;28;20024;-69
2021/11/22 07:05:19;;;;;;;5.22;2.22;;;4.80;82.70;;;;;;5089516;28;20028;-68
2021/11/22 07:07:45;;;;;;;7.03;1.88;;;4.80;82.70;;;;;;5089863;28;20429;-69
2021/11/22 07:10:11;;;;;;;4.45;1.73;;;4.80;82.70;;;;;;5072259;28;20455;-79
2021/11/22 07:12:37;;;;;;;5.68;1.42;;;4.80;82.80;;;;;;5090749;28;20081;-79
2021/11/22 07:15:04;;;;;;;3.63;1.80;;;4.80;82.80;;;;;;5058167;28;20024;-79
2021/11/22 07:17:30;;;;;;;3.53;1.60;;;4.80;82.80;;;;;;5072143;28;20017;-79
2021/11/22 07:19:56;;;;;;;6.82;1.77;;;4.80;82.90;;;;;;5058443;28;20607;-79
2021/11/22 07:22:22;;;;;;;3.22;1.40;;;4.80;83.00;;;;;;5090653;28;20054;-69
2021/11/22 07:24:48;;;;;;;4.63;1.27;;;4.80;83.00;;;;;;5089420;28;20032;-68
2021/11/22 07:27:14;;;;;;;5.63;1.75;;;4.80;83.10;;;;;;5089680;28;20040;-68
2021/11/22 07:29:43;;;;;;;5.15;1.83;;;4.80;83.10;;;;;;5088886;28;20364;-68
2021/11/22 07:32:10;;;;;;;3.20;1.88;;;4.80;83.20;;;;;;5087931;28;20041;-79
2021/11/22 07:34:36;;;;;;;3.85;1.52;;;4.80;83.30;;;;;;5071056;28;20028;-79
2021/11/22 07:37:03;;;;;;;2.78;1.35;;;4.80;83.30;;;;;;5072004;28;20089;-79
2021/11/22 07:39:29;;;;;;;3.25;1.55;;;4.80;83.40;;;;;;5058772;28;20505;-76
2021/11/22 07:41:56;;;;;;;4.72;1.45;;;4.80;83.40;;;;;;5089756;28;20024;-78
2021/11/22 07:44:25;;;;;;;2.83;1.52;;;4.80;83.40;;;;;;5075512;28;20053;-79
2021/11/22 07:46:52;;;;;;;6.40;1.67;;;4.80;83.40;;;;;;5089452;28;20040;-79
2021/11/22 07:49:17;;;;;;;4.53;1.38;;;4.80;83.50;;;;;;5088871;28;20391;-78
2021/11/22 07:51:43;;;;;;;2.80;1.48;;;4.80;83.50;;;;;;5089245;28;20035;-77
2021/11/22 07:54:09;;;;;;;5.93;1.30;;;4.80;83.50;;;;;;5067140;28;20520;-79
2021/11/22 07:56:35;;;;;;;5.40;1.35;;;4.90;83.60;;;;;;5068863;28;20122;-79
2021/11/22 07:59:00;;;;;;;9.02;2.22;;;4.90;83.60;;;;;;5069253;28;20036;-77
2021/11/22 08:01:26;;;;;;;5.82;2.00;;;4.90;83.60;;;;;;5087633;28;20497;-75
2021/11/22 08:03:52;;;;;;;2.35;1.35;;;4.90;83.70;;;;;;5105455;28;20435;-81
2021/11/22 08:06:19;;;;;;;3.83;1.48;;;4.90;83.70;;;;;;5091732;28;20040;-75
2021/11/22 08:08:45;;;;;;;3.42;1.45;;;4.90;83.60;;;;;;5090330;28;20055;-75
2021/11/22 08:13:40;;;;;;;3.33;1.30;;;4.90;83.70;;;;;;5091409;28;20386;-75
2021/11/22 08:16:08;;;;;;;4.63;1.10;;;4.90;83.80;;;;;;5090716;28;20051;-79
2021/11/22 08:18:35;;;;;;;3.65;1.40;;;5.00;83.90;;;;;;5091744;28;20039;-74
2021/11/22 08:21:02;;;;;;;3.22;1.20;;;5.00;83.90;;;;;;5062747;28;20431;-74
2021/11/22 08:23:28;;;;;;;11.05;1.92;;;5.00;84.00;;;;;;5077683;28;20505;-78
2021/11/22 08:25:55;;;;;;;2.75;1.20;;;5.00;84.00;;;;;;5093121;28;20036;-73
2021/11/22 08:28:21;;;;;;;2.97;1.48;;;5.00;84.10;;;;;;5093846;28;20540;-73
2021/11/22 08:30:47;;;;;;;8.35;1.60;;;5.00;84.20;;;;;;5093342;28;20061;-74
2021/11/22 08:33:15;;;;;;;3.47;1.40;;;5.00;84.20;;;;;;5074309;28;20564;-71
2021/11/22 08:35:42;;;;;;;3.50;1.10;;;5.10;84.40;;;;;;5072587;28;20020;-70
2021/11/22 08:38:08;;;;;;;7.03;1.55;;;5.10;84.40;;;;;;5092040;28;20059;-71
2021/11/22 08:40:36;;;;;;;3.40;1.40;;;5.10;84.30;;;;;;5092615;28;20062;-71
2021/11/22 08:43:03;;;;;;;7.93;1.42;;;5.20;84.40;;;;;;5092215;28;20028;-71
2021/11/22 08:45:29;;;;;;;3.85;1.15;;;5.20;84.40;;;;;;5074278;28;20097;-70
2021/11/22 08:47:55;;;;;;;4.28;1.30;;;5.20;84.30;;;;;;5058676;28;20068;-70
2021/11/22 08:50:22;;;;;;;3.28;1.48;;;5.20;84.30;;;;;;5081443;28;20028;-70
2021/11/22 08:52:48;;;;;;;2.38;1.20;;;5.20;84.30;;;;;;5089397;28;20466;-71
2021/11/22 08:55:15;;;;;;;8.07;1.83;;;5.30;84.40;;;;;;5066975;28;20051;-71
2021/11/22 08:57:42;;;;;;;4.20;1.15;;;5.30;84.50;;;;;;5092686;28;20036;-71
2021/11/22 09:00:15;;;;;;;4.13;1.60;;;5.30;84.40;;;;;;5091976;28;20027;-71
2021/11/22 09:02:40;;;;;;;5.55;1.55;;;5.30;84.40;;;;;;5081233;28;20832;-70
2021/11/22 09:05:07;;;;;;;3.22;1.40;;;5.40;84.40;;;;;;5085499;28;20032;-71
2021/11/22 09:07:33;;;;;;;9.23;1.58;;;5.40;84.60;;;;;;5092523;28;20518;-71
2021/11/22 09:09:58;;;;;;;3.92;1.40;;;5.40;84.60;;;;;;5091194;28;20119;-71
2021/11/22 09:12:24;;;;;;;4.15;1.35;;;5.40;84.60;;;;;;5074480;28;20033;-71
2021/11/22 09:14:50;;;;;;;3.58;1.50;;;5.50;84.60;;;;;;5092299;28;20459;-77
2021/11/22 09:17:18;;;;;;;4.13;1.65;;;5.50;84.70;;;;;;5092357;28;20016;-77
2021/11/22 09:19:44;;;;;;;3.90;1.40;;;5.60;84.90;;;;;;5092298;28;20451;-76
2021/11/22 09:22:11;;;;;;;3.90;1.30;;;5.60;84.90;;;;;;5079275;28;20089;-76
2021/11/22 09:24:38;;;;;;;3.25;1.23;;;5.70;84.90;;;;;;5092420;28;20052;-76
2021/11/22 09:27:04;;;;;;;4.20;1.70;;;5.80;84.80;;;;;;5079267;28;20032;-76
2021/11/22 09:29:30;;;;;;;3.10;1.23;;;5.80;84.80;;;;;;5073142;28;20498;-76
2021/11/22 09:31:55;;;;;;;3.97;1.60;;;5.90;84.80;;;;;;5059757;28;20035;-70
2021/11/22 09:34:21;;;;;;;4.13;1.65;;;6.00;84.90;;;;;;5057217;28;20025;-70
2021/11/22 09:36:48;;;;;;;7.22;1.30;;;6.20;85.00;;;;;;5090635;28;20758;-70
2021/11/22 09:39:15;;;;;;;5.20;1.20;;;6.20;85.10;;;;;;5091749;28;20378;-70
2021/11/22 09:41:41;;;;;;;8.75;1.77;;;6.40;85.00;;;;;;5065275;28;20032;-75
2021/11/22 09:44:08;;;;;;;3.47;1.40;;;6.50;85.00;;;;;;5090461;28;20536;-75
2021/11/22 09:46:33;;;;;;;3.20;1.17;;;6.60;85.00;;;;;;5073925;28;20063;-74
2021/11/22 09:48:59;;;;;;;3.17;1.10;;;6.70;84.90;;;;;;5073588;28;20075;-75
2021/11/22 09:51:25;;;;;;;1.98;1.10;;;6.80;84.80;;;;;;5056965;28;20043;-76
2021/11/22 09:53:51;;;;;;;4.97;1.80;;;6.90;84.70;;;;;;5090925;28;20359;-76
2021/11/22 09:56:16;;;;;;;3.38;1.40;;;7.00;84.70;;;;;;5090529;28;20059;-74
2021/11/22 09:58:42;;;;;;;6.63;1.50;;;7.10;85.10;;;;;;5091393;28;20334;-69
2021/11/22 10:01:13;;;;;;;4.63;1.58;;;7.10;84.10;;;;;;5082529;28;20435;-74
2021/11/22 10:03:39;;;;;;;3.92;1.30;;;7.30;84.40;;;;;;5086713;28;20482;-69
2021/11/22 10:06:05;;;;;;;8.65;1.38;;;7.30;84.30;;;;;;5091950;28;20032;-69
2021/11/22 10:08:41;;;;;;;6.18;1.90;;;7.40;84.30;;;;;;5091426;28;20035;-69
2021/11/22 10:11:12;;;;;;;2.75;1.40;;;7.60;84.30;;;;;;5090245;28;20102;-74
2021/11/22 10:13:40;;;;;;;4.43;1.20;;;8.00;84.40;;;;;;5090138;28;20016;-74
2021/11/22 10:16:12;;;;;;;2.00;1.25;;;8.50;83.70;;;;;;5090748;28;20020;-74
2021/11/22 10:18:46;;;;;;;2.72;1.00;;;9.30;82.30;;;;;;5072396;28;20379;-74
2021/11/22 10:21:15;;;;;;;2.88;1.10;;;10.50;79.90;;;;;;5063832;28;20077;-74
2021/11/22 10:23:46;;;;;;;3.38;1.17;;;11.80;75.50;;;;;;5086645;28;20042;-74
2021/11/22 10:26:16;;;;;;;4.45;1.50;;;13.20;71.00;;;;;;5090892;28;20032;-69
2021/11/22 10:28:53;;;;;;;2.67;1.27;;;14.60;67.20;;;;;;5071976;28;20115;-69
2021/11/22 10:31:23;;;;;;;5.43;1.50;;;15.70;63.30;;;;;;5091100;28;20073;-75
2021/11/22 10:33:51;;;;;;;2.00;0.88;;;16.80;59.20;;;;;;5090827;28;20028;-70
2021/11/22 10:36:22;;;;;;;4.20;0.85;;;17.70;56.80;;;;;;5090488;28;20020;-75
2021/11/22 10:38:56;;;;;;;1.95;0.77;;;18.40;53.60;;;;;;5090930;28;20039;-69
2021/11/22 10:41:29;;;;;;;2.92;0.90;;;19.10;51.80;;;;;;5061199;28;20087;-75
2021/11/22 10:44:01;;;;;;;4.13;0.90;;;19.40;50.40;;;;;;5088890;28;20020;-75
2021/11/22 10:46:42;;;;;;;3.25;1.02;;;19.50;49.50;;;;;;5090185;28;20424;-75
2021/11/22 10:52:35;;;;;;;1.83;0.90;;;20.10;47.30;;;;;;5085588;28;20440;-76
2021/11/22 10:55:06;;;;;;;3.08;1.25;;;20.70;45.40;;;;;;5083567;28;20031;-76
2021/11/22 10:57:44;;;;;;;2.08;1.13;;;21.30;44.50;;;;;;5090196;28;20036;-76
2021/11/22 11:00:22;;;;;;;2.35;0.90;;;21.60;42.70;;;;;;5090368;28;20016;-76
2021/11/22 11:02:49;;;;;;;4.25;1.10;;;21.90;42.30;;;;;;5071813;28;20524;-76
2021/11/22 11:05:31;;;;;;;2.05;0.93;;;22.20;41.50;;;;;;5090124;28;20028;-69
2021/11/22 11:08:11;;;;;;;1.88;0.90;;;22.40;41.40;;;;;;5090637;28;20032;-69
2021/11/22 11:10:39;;;;;;;2.33;0.95;;;22.70;40.70;;;;;;5083718;28;20063;-70
2021/11/22 11:13:06;;;;;;;1.88;0.82;;;22.80;38.60;;;;;;5082797;28;20032;-70
2021/11/22 11:15:32;;;;;;;4.13;1.02;;;22.90;38.70;;;;;;5062874;28;20044;-79
2021/11/22 11:17:58;;;;;;;5.88;1.23;;;23.20;38.30;;;;;;5083864;28;20494;-78
2021/11/22 11:20:25;;;;;;;2.30;1.10;;;23.40;38.20;;;;;;5081669;28;20029;-78
2021/11/22 11:22:51;;;;;;;3.03;1.00;;;23.60;37.00;;;;;;5054847;28;20474;-71
2021/11/22 11:25:22;;;;;;;2.47;0.90;;;23.80;37.20;;;;;;5063374;28;20043;-71
2021/11/22 11:27:48;;;;;;;3.20;1.40;;;23.80;36.50;;;;;;5087923;28;20032;-71
2021/11/22 11:30:19;;;;;;;2.45;1.20;;;23.90;36.30;;;;;;5086567;28;20032;-71
2021/11/22 11:32:45;;;;;;;2.40;0.87;;;24.10;35.90;;;;;;5064545;28;20023;-78
2021/11/22 11:35:15;;;;;;;1.35;0.90;;;24.30;35.50;;;;;;5071798;28;20020;-71
2021/11/22 11:38:08;;;;;;;1.35;0.98;;;24.50;35.40;;;;;;5090842;28;20059;-71
2021/11/22 11:40:52;;;;;;;1.23;1.00;;;24.50;34.20;;;;;;5084233;28;20160;-71
2021/11/22 11:43:45;;;;;;;3.70;1.40;;;24.40;34.50;;;;;;5063941;28;20419;-78
2021/11/22 11:46:45;;;;;;;2.97;1.10;;;24.70;34.70;;;;;;5086335;28;20155;-78
2021/11/22 11:49:13;;;;;;;2.00;1.00;;;25.00;33.40;;;;;;5078799;28;20169;-78
2021/11/22 11:51:42;;;;;;;3.30;1.02;;;25.20;33.50;;;;;;5084733;28;20514;-78
2021/11/22 11:54:15;;;;;;;2.70;1.30;;;25.30;32.10;;;;;;5079667;28;20027;-78
2021/11/22 11:56:45;;;;;;;3.50;1.40;;;25.40;32.70;;;;;;5104284;28;20028;-78
2021/11/22 11:59:13;;;;;;;2.22;1.20;;;25.70;32.30;;;;;;5086570;28;20101;-78
2021/11/22 12:02:13;;;;;;;2.47;1.23;;;25.80;32.80;;;;;;5083741;28;20028;-78
2021/11/22 12:04:59;;;;;;;3.35;1.10;;;25.80;32.40;;;;;;5088284;28;20036;-79
2021/11/22 12:07:31;;;;;;;4.20;1.05;;;25.90;32.20;;;;;;5078397;28;20080;-78
2021/11/22 12:10:26;;;;;;;2.42;1.10;;;26.10;31.20;;;;;;5071114;28;20066;-78
2021/11/22 12:13:02;;;;;;;2.08;1.15;;;26.10;31.50;;;;;;5076164;28;20028;-71
2021/11/22 12:16:07;;;;;;;3.13;1.60;;;26.10;31.40;;;;;;5078236;28;20068;-71
2021/11/22 12:18:35;;;;;;;2.20;1.20;;;26.10;30.30;;;;;;5001236;28;20062;-71
2021/11/22 12:21:06;;;;;;;2.40;1.23;;;26.20;31.10;;;;;;5002887;28;20736;-71
2021/11/22 12:23:48;;;;;;;2.53;1.17;;;26.30;31.10;;;;;;5046677;28;20356;-78
2021/11/22 12:26:24;;;;;;;2.38;1.27;;;26.20;31.30;;;;;;5109083;28;20039;-77
2021/11/22 12:28:51;;;;;;;1.45;1.08;;;25.60;31.80;;;;;;5094303;28;20565;-71
2021/11/22 12:31:25;;;;;;;1.80;1.17;;;24.90;32.90;;;;;;5075650;28;20497;-71
2021/11/22 12:33:57;;;;;;;3.05;1.05;;;24.20;32.90;;;;;;5085789;28;20399;-71
2021/11/22 12:36:22;;;;;;;5.03;1.00;;;23.70;34.20;;;;;;5084855;28;20031;-71
2021/11/22 12:38:49;;;;;;;4.90;1.33;;;23.60;33.50;;;;;;5086842;28;20447;-71
2021/11/22 12:41:21;;;;;;;2.33;1.05;;;23.60;33.70;;;;;;5089915;28;20359;-71
2021/11/22 12:43:52;;;;;;;3.78;1.20;;;23.20;34.10;;;;;;5070681;28;20035;-71
2021/11/22 12:46:36;;;;;;;3.10;1.57;;;22.50;34.60;;;;;;5086856;28;20032;-71
2021/11/22 12:49:31;;;;;;;3.90;1.13;;;21.70;36.40;;;;;;5083840;28;20075;-78
2021/11/22 12:52:12;;;;;;;3.40;1.35;;;21.00;36.40;;;;;;5070037;28;20036;-76
2021/11/22 12:54:52;;;;;;;4.35;1.42;;;20.50;37.70;;;;;;5070781;28;20118;-76
2021/11/22 12:57:24;;;;;;;5.30;1.50;;;20.20;37.80;;;;;;5075714;28;20047;-76
2021/11/22 13:00:21;;;;;;;3.22;1.05;;;20.20;38.10;;;;;;5086461;28;20024;-76
2021/11/22 13:03:02;;;;;;;4.07;1.10;;;20.20;38.40;;;;;;5073246;28;20504;-76
2021/11/22 13:05:50;;;;;;;2.78;1.23;;;19.90;38.80;;;;;;5091312;28;20032;-76